sensor_id;sensor_type;location;lat;lon;timestamp;temperature;humidity
3628;DHT22;1830;49.000;12.074;2023-06-19T00:01:57;18.70;91.10
3628;DHT22;1830;49.000;12.074;2023-06-19T00:04:26;18.70;91.30
3628;DHT22;1830;49.000;12.074;2023-06-19T00:06:53;18.70;91.30
3628;DHT22;1830;49.000;12.074;2023-06-19T00:09:19;18.60;91.40
3628;DHT22;1830;49.000;12.074;2023-06-19T00:11:46;18.60;91.40
3628;DHT22;1830;49.000;12.074;2023-06-19T00:14:13;18.60;91.50
3628;DHT22;1830;49.000;12.074;2023-06-19T00:16:40;18.60;91.40
3628;DHT22;1830;49.000;12.074;2023-06-19T00:19:06;18.70;91.40
3628;DHT22;1830;49.000;12.074;2023-06-19T00:21:35;18.70;91.50
3628;DHT22;1830;49.000;12.074;2023-06-19T00:24:03;18.70;91.50
3628;DHT22;1830;49.000;12.074;2023-06-19T00:26:30;18.70;91.60
3628;DHT22;1830;49.000;12.074;2023-06-19T00:28:57;18.70;91.60
3628;DHT22;1830;49.000;12.074;2023-06-19T00:31:24;18.70;92.00
3628;DHT22;1830;49.000;12.074;2023-06-19T00:33:52;18.70;91.80
3628;DHT22;1830;49.000;12.074;2023-06-19T00:36:19;18.70;91.80
3628;DHT22;1830;49.000;12.074;2023-06-19T00:38:48;18.70;91.70
3628;DHT22;1830;49.000;12.074;2023-06-19T00:41:15;18.70;91.60
3628;DHT22;1830;49.000;12.074;2023-06-19T00:43:42;18.70;91.60
3628;DHT22;1830;49.000;12.074;2023-06-19T00:46:09;18.70;91.70
3628;DHT22;1830;49.000;12.074;2023-06-19T00:48:37;18.70;91.80
3628;DHT22;1830;49.000;12.074;2023-06-19T00:51:05;18.70;91.80
3628;DHT22;1830;49.000;12.074;2023-06-19T00:53:32;18.70;92.00
3628;DHT22;1830;49.000;12.074;2023-06-19T00:56:02;18.70;92.10
3628;DHT22;1830;49.000;12.074;2023-06-19T00:58:29;18.80;92.20
3628;DHT22;1830;49.000;12.074;2023-06-19T01:00:57;18.70;92.40
3628;DHT22;1830;49.000;12.074;2023-06-19T01:03:24;18.70;92.40
3628;DHT22;1830;49.000;12.074;2023-06-19T01:05:53;18.70;92.60
3628;DHT22;1830;49.000;12.074;2023-06-19T01:08:39;18.70;92.60
3628;DHT22;1830;49.000;12.074;2023-06-19T01:11:09;18.70;92.50
3628;DHT22;1830;49.000;12.074;2023-06-19T01:13:43;18.70;92.50
3628;DHT22;1830;49.000;12.074;2023-06-19T01:16:11;18.60;92.40
3628;DHT22;1830;49.000;12.074;2023-06-19T01:18:38;18.60;92.40
3628;DHT22;1830;49.000;12.074;2023-06-19T01:21:10;18.60;92.40
3628;DHT22;1830;49.000;12.074;2023-06-19T01:23:39;18.70;92.40
3628;DHT22;1830;49.000;12.074;2023-06-19T01:26:06;18.60;92.40
3628;DHT22;1830;49.000;12.074;2023-06-19T01:28:33;18.60;92.30
3628;DHT22;1830;49.000;12.074;2023-06-19T01:31:03;18.70;92.20
3628;DHT22;1830;49.000;12.074;2023-06-19T01:33:32;18.60;92.00
3628;DHT22;1830;49.000;12.074;2023-06-19T01:36:00;18.60;91.90
3628;DHT22;1830;49.000;12.074;2023-06-19T01:38:29;18.70;91.70
3628;DHT22;1830;49.000;12.074;2023-06-19T01:40:59;18.70;91.60
3628;DHT22;1830;49.000;12.074;2023-06-19T01:43:28;18.70;91.60
3628;DHT22;1830;49.000;12.074;2023-06-19T01:45:56;18.70;91.50
3628;DHT22;1830;49.000;12.074;2023-06-19T01:48:23;18.70;91.50
3628;DHT22;1830;49.000;12.074;2023-06-19T01:50:50;18.60;91.50
3628;DHT22;1830;49.000;12.074;2023-06-19T01:53:17;18.70;91.50
3628;DHT22;1830;49.000;12.074;2023-06-19T01:55:44;18.70;91.70
3628;DHT22;1830;49.000;12.074;2023-06-19T01:58:12;18.60;91.80
3628;DHT22;1830;49.000;12.074;2023-06-19T02:00:39;18.60;91.80
3628;DHT22;1830;49.000;12.074;2023-06-19T02:03:06;18.70;91.90
3628;DHT22;1830;49.000;12.074;2023-06-19T02:05:32;18.70;91.90
3628;DHT22;1830;49.000;12.074;2023-06-19T02:08:04;18.70;91.70
3628;DHT22;1830;49.000;12.074;2023-06-19T02:10:31;18.80;91.70
3628;DHT22;1830;49.000;12.074;2023-06-19T02:12:58;18.70;91.60
3628;DHT22;1830;49.000;12.074;2023-06-19T02:15:26;18.80;91.70
3628;DHT22;1830;49.000;12.074;2023-06-19T02:17:54;18.70;91.70
3628;DHT22;1830;49.000;12.074;2023-06-19T02:20:21;18.70;91.80
3628;DHT22;1830;49.000;12.074;2023-06-19T02:22:50;18.70;92.20
3628;DHT22;1830;49.000;12.074;2023-06-19T02:25:17;18.60;91.60
3628;DHT22;1830;49.000;12.074;2023-06-19T02:27:44;18.60;91.90
3628;DHT22;1830;49.000;12.074;2023-06-19T02:30:12;18.60;92.00
3628;DHT22;1830;49.000;12.074;2023-06-19T02:32:40;18.70;91.90
3628;DHT22;1830;49.000;12.074;2023-06-19T02:35:10;18.70;91.90
3628;DHT22;1830;49.000;12.074;2023-06-19T02:37:37;18.80;92.10
3628;DHT22;1830;49.000;12.074;2023-06-19T02:40:05;18.80;92.20
3628;DHT22;1830;49.000;12.074;2023-06-19T02:42:32;18.80;92.20
3628;DHT22;1830;49.000;12.074;2023-06-19T02:44:59;18.80;92.40
3628;DHT22;1830;49.000;12.074;2023-06-19T02:47:29;18.70;92.30
3628;DHT22;1830;49.000;12.074;2023-06-19T02:49:57;18.80;92.60
3628;DHT22;1830;49.000;12.074;2023-06-19T02:52:24;18.80;92.70
3628;DHT22;1830;49.000;12.074;2023-06-19T02:54:51;18.80;92.40
3628;DHT22;1830;49.000;12.074;2023-06-19T02:57:18;18.80;92.30
3628;DHT22;1830;49.000;12.074;2023-06-19T02:59:45;18.70;92.70
3628;DHT22;1830;49.000;12.074;2023-06-19T03:02:12;18.70;92.50
3628;DHT22;1830;49.000;12.074;2023-06-19T03:04:39;18.70;92.30
3628;DHT22;1830;49.000;12.074;2023-06-19T03:07:07;18.80;92.20
3628;DHT22;1830;49.000;12.074;2023-06-19T03:09:34;18.80;92.00
3628;DHT22;1830;49.000;12.074;2023-06-19T03:12:01;18.80;92.00
3628;DHT22;1830;49.000;12.074;2023-06-19T03:14:28;18.80;92.00
3628;DHT22;1830;49.000;12.074;2023-06-19T03:16:54;18.80;92.00
3628;DHT22;1830;49.000;12.074;2023-06-19T03:19:21;18.80;92.00
3628;DHT22;1830;49.000;12.074;2023-06-19T03:21:48;18.80;91.90
3628;DHT22;1830;49.000;12.074;2023-06-19T03:24:16;18.70;92.00
3628;DHT22;1830;49.000;12.074;2023-06-19T03:26:42;18.70;92.10
3628;DHT22;1830;49.000;12.074;2023-06-19T03:29:09;18.70;92.10
3628;DHT22;1830;49.000;12.074;2023-06-19T03:31:36;18.70;92.10
3628;DHT22;1830;49.000;12.074;2023-06-19T03:34:05;18.70;92.70
3628;DHT22;1830;49.000;12.074;2023-06-19T03:36:31;18.60;93.30
3628;DHT22;1830;49.000;12.074;2023-06-19T03:38:58;18.60;92.90
3628;DHT22;1830;49.000;12.074;2023-06-19T03:41:26;18.60;92.70
3628;DHT22;1830;49.000;12.074;2023-06-19T03:43:53;18.60;92.70
3628;DHT22;1830;49.000;12.074;2023-06-19T03:46:20;18.60;92.80
3628;DHT22;1830;49.000;12.074;2023-06-19T03:48:47;18.60;92.50
3628;DHT22;1830;49.000;12.074;2023-06-19T03:51:14;18.50;92.40
3628;DHT22;1830;49.000;12.074;2023-06-19T03:53:40;18.40;92.60
3628;DHT22;1830;49.000;12.074;2023-06-19T03:56:07;18.50;92.50
3628;DHT22;1830;49.000;12.074;2023-06-19T03:58:35;18.40;92.80
3628;DHT22;1830;49.000;12.074;2023-06-19T04:01:02;18.50;92.70
3628;DHT22;1830;49.000;12.074;2023-06-19T04:03:31;18.60;93.00
3628;DHT22;1830;49.000;12.074;2023-06-19T04:05:57;18.60;93.10
3628;DHT22;1830;49.000;12.074;2023-06-19T04:08:24;18.60;93.10
3628;DHT22;1830;49.000;12.074;2023-06-19T04:10:51;18.60;93.10
3628;DHT22;1830;49.000;12.074;2023-06-19T04:13:18;18.50;93.50
3628;DHT22;1830;49.000;12.074;2023-06-19T04:15:46;18.60;93.40
3628;DHT22;1830;49.000;12.074;2023-06-19T04:18:13;18.80;93.20
3628;DHT22;1830;49.000;12.074;2023-06-19T04:20:40;18.70;93.00
3628;DHT22;1830;49.000;12.074;2023-06-19T04:23:07;18.70;93.30
3628;DHT22;1830;49.000;12.074;2023-06-19T04:25:34;18.70;93.50
3628;DHT22;1830;49.000;12.074;2023-06-19T04:28:00;18.70;93.70
3628;DHT22;1830;49.000;12.074;2023-06-19T04:30:29;18.60;95.00
3628;DHT22;1830;49.000;12.074;2023-06-19T04:32:57;18.60;96.10
3628;DHT22;1830;49.000;12.074;2023-06-19T04:35:23;18.50;95.80
3628;DHT22;1830;49.000;12.074;2023-06-19T04:37:50;18.40;95.70
3628;DHT22;1830;49.000;12.074;2023-06-19T04:40:18;18.50;95.70
3628;DHT22;1830;49.000;12.074;2023-06-19T04:42:45;18.30;96.20
3628;DHT22;1830;49.000;12.074;2023-06-19T04:45:12;18.30;96.50
3628;DHT22;1830;49.000;12.074;2023-06-19T04:47:39;18.40;95.90
3628;DHT22;1830;49.000;12.074;2023-06-19T04:50:08;18.40;96.30
3628;DHT22;1830;49.000;12.074;2023-06-19T04:52:35;18.40;96.00
3628;DHT22;1830;49.000;12.074;2023-06-19T04:55:04;18.40;95.60
3628;DHT22;1830;49.000;12.074;2023-06-19T04:57:31;18.40;95.50
3628;DHT22;1830;49.000;12.074;2023-06-19T04:59:58;18.40;95.20
3628;DHT22;1830;49.000;12.074;2023-06-19T05:02:24;18.50;95.00
3628;DHT22;1830;49.000;12.074;2023-06-19T05:04:51;18.50;95.00
3628;DHT22;1830;49.000;12.074;2023-06-19T05:07:19;18.60;95.00
3628;DHT22;1830;49.000;12.074;2023-06-19T05:09:46;18.60;95.10
3628;DHT22;1830;49.000;12.074;2023-06-19T05:12:13;18.60;95.00
3628;DHT22;1830;49.000;12.074;2023-06-19T05:14:40;18.70;94.90
3628;DHT22;1830;49.000;12.074;2023-06-19T05:17:06;18.70;94.70
3628;DHT22;1830;49.000;12.074;2023-06-19T05:19:35;18.80;94.60
3628;DHT22;1830;49.000;12.074;2023-06-19T05:22:01;18.80;94.40
3628;DHT22;1830;49.000;12.074;2023-06-19T05:24:29;18.80;94.50
3628;DHT22;1830;49.000;12.074;2023-06-19T05:26:56;18.90;94.50
3628;DHT22;1830;49.000;12.074;2023-06-19T05:29:23;18.90;94.50
3628;DHT22;1830;49.000;12.074;2023-06-19T05:31:50;18.80;94.50
3628;DHT22;1830;49.000;12.074;2023-06-19T05:34:17;18.90;94.80
3628;DHT22;1830;49.000;12.074;2023-06-19T05:36:44;18.90;94.90
3628;DHT22;1830;49.000;12.074;2023-06-19T05:39:12;18.90;94.90
3628;DHT22;1830;49.000;12.074;2023-06-19T05:41:41;18.90;94.90
3628;DHT22;1830;49.000;12.074;2023-06-19T05:44:07;18.90;95.00
3628;DHT22;1830;49.000;12.074;2023-06-19T05:46:35;18.90;94.90
3628;DHT22;1830;49.000;12.074;2023-06-19T05:49:02;19.00;94.90
3628;DHT22;1830;49.000;12.074;2023-06-19T05:51:28;18.90;94.90
3628;DHT22;1830;49.000;12.074;2023-06-19T05:53:55;18.90;94.90
3628;DHT22;1830;49.000;12.074;2023-06-19T05:56:26;19.00;95.10
3628;DHT22;1830;49.000;12.074;2023-06-19T05:58:54;19.00;95.00
3628;DHT22;1830;49.000;12.074;2023-06-19T06:01:21;19.00;95.00
3628;DHT22;1830;49.000;12.074;2023-06-19T06:03:49;19.10;95.20
3628;DHT22;1830;49.000;12.074;2023-06-19T06:06:16;19.10;95.00
3628;DHT22;1830;49.000;12.074;2023-06-19T06:08:43;19.10;95.10
3628;DHT22;1830;49.000;12.074;2023-06-19T06:11:10;19.20;95.00
3628;DHT22;1830;49.000;12.074;2023-06-19T06:13:37;19.20;95.00
3628;DHT22;1830;49.000;12.074;2023-06-19T06:16:05;19.30;94.90
3628;DHT22;1830;49.000;12.074;2023-06-19T06:18:33;19.40;95.00
3628;DHT22;1830;49.000;12.074;2023-06-19T06:20:59;19.40;95.40
3628;DHT22;1830;49.000;12.074;2023-06-19T06:23:26;19.40;95.20
3628;DHT22;1830;49.000;12.074;2023-06-19T06:25:53;19.40;95.30
3628;DHT22;1830;49.000;12.074;2023-06-19T06:28:26;19.40;95.60
3628;DHT22;1830;49.000;12.074;2023-06-19T06:30:54;19.50;96.00
3628;DHT22;1830;49.000;12.074;2023-06-19T06:33:22;19.50;95.80
3628;DHT22;1830;49.000;12.074;2023-06-19T06:35:49;19.50;95.60
3628;DHT22;1830;49.000;12.074;2023-06-19T06:38:16;19.50;95.90
3628;DHT22;1830;49.000;12.074;2023-06-19T06:40:43;19.60;95.90
3628;DHT22;1830;49.000;12.074;2023-06-19T06:43:09;19.60;95.50
3628;DHT22;1830;49.000;12.074;2023-06-19T06:45:36;19.80;95.60
3628;DHT22;1830;49.000;12.074;2023-06-19T06:48:04;19.80;95.20
3628;DHT22;1830;49.000;12.074;2023-06-19T06:50:33;19.80;95.30
3628;DHT22;1830;49.000;12.074;2023-06-19T06:53:00;19.80;95.50
3628;DHT22;1830;49.000;12.074;2023-06-19T06:55:27;19.80;95.40
3628;DHT22;1830;49.000;12.074;2023-06-19T06:57:54;19.90;95.30
3628;DHT22;1830;49.000;12.074;2023-06-19T07:00:21;20.00;95.40
3628;DHT22;1830;49.000;12.074;2023-06-19T07:02:48;20.10;95.60
3628;DHT22;1830;49.000;12.074;2023-06-19T07:05:16;20.30;95.30
3628;DHT22;1830;49.000;12.074;2023-06-19T07:07:44;20.40;95.10
3628;DHT22;1830;49.000;12.074;2023-06-19T07:10:11;20.50;95.30
3628;DHT22;1830;49.000;12.074;2023-06-19T07:12:46;20.60;95.00
3628;DHT22;1830;49.000;12.074;2023-06-19T07:15:13;20.70;94.80
3628;DHT22;1830;49.000;12.074;2023-06-19T07:17:39;20.80;94.40
3628;DHT22;1830;49.000;12.074;2023-06-19T07:20:07;20.90;94.60
3628;DHT22;1830;49.000;12.074;2023-06-19T07:22:34;21.00;94.10
3628;DHT22;1830;49.000;12.074;2023-06-19T07:25:03;21.00;94.00
3628;DHT22;1830;49.000;12.074;2023-06-19T07:27:30;21.10;94.20
3628;DHT22;1830;49.000;12.074;2023-06-19T07:29:57;21.20;94.40
3628;DHT22;1830;49.000;12.074;2023-06-19T07:32:24;21.10;94.40
3628;DHT22;1830;49.000;12.074;2023-06-19T07:34:50;21.10;94.60
3628;DHT22;1830;49.000;12.074;2023-06-19T07:37:18;21.20;94.80
3628;DHT22;1830;49.000;12.074;2023-06-19T07:39:45;21.40;94.30
3628;DHT22;1830;49.000;12.074;2023-06-19T07:42:13;21.50;94.00
3628;DHT22;1830;49.000;12.074;2023-06-19T07:44:40;21.50;93.50
3628;DHT22;1830;49.000;12.074;2023-06-19T07:47:08;21.40;93.30
3628;DHT22;1830;49.000;12.074;2023-06-19T07:49:35;21.50;93.30
3628;DHT22;1830;49.000;12.074;2023-06-19T07:52:02;21.50;93.40
3628;DHT22;1830;49.000;12.074;2023-06-19T07:54:29;21.60;93.10
3628;DHT22;1830;49.000;12.074;2023-06-19T07:56:56;21.70;92.60
3628;DHT22;1830;49.000;12.074;2023-06-19T07:59:24;21.80;92.50
3628;DHT22;1830;49.000;12.074;2023-06-19T08:01:51;21.80;92.50
3628;DHT22;1830;49.000;12.074;2023-06-19T08:04:18;21.90;92.50
3628;DHT22;1830;49.000;12.074;2023-06-19T08:06:45;22.10;92.90
3628;DHT22;1830;49.000;12.074;2023-06-19T08:09:12;22.20;93.40
3628;DHT22;1830;49.000;12.074;2023-06-19T08:11:39;22.30;93.30
3628;DHT22;1830;49.000;12.074;2023-06-19T08:14:06;22.30;92.90
3628;DHT22;1830;49.000;12.074;2023-06-19T08:16:34;22.40;92.80
3628;DHT22;1830;49.000;12.074;2023-06-19T08:19:00;22.60;93.10
3628;DHT22;1830;49.000;12.074;2023-06-19T08:21:27;22.70;93.00
3628;DHT22;1830;49.000;12.074;2023-06-19T08:23:54;22.80;92.70
3628;DHT22;1830;49.000;12.074;2023-06-19T08:26:21;22.90;92.40
3628;DHT22;1830;49.000;12.074;2023-06-19T08:28:47;22.90;92.30
3628;DHT22;1830;49.000;12.074;2023-06-19T08:31:14;23.00;92.60
3628;DHT22;1830;49.000;12.074;2023-06-19T08:33:43;23.10;91.60
3628;DHT22;1830;49.000;12.074;2023-06-19T08:36:10;23.10;91.60
3628;DHT22;1830;49.000;12.074;2023-06-19T08:38:37;23.10;91.20
3628;DHT22;1830;49.000;12.074;2023-06-19T08:41:04;23.20;91.20
3628;DHT22;1830;49.000;12.074;2023-06-19T08:43:31;23.30;91.40
3628;DHT22;1830;49.000;12.074;2023-06-19T08:46:07;23.40;91.60
3628;DHT22;1830;49.000;12.074;2023-06-19T08:48:35;23.50;91.30
3628;DHT22;1830;49.000;12.074;2023-06-19T08:51:04;23.50;91.60
3628;DHT22;1830;49.000;12.074;2023-06-19T08:53:33;23.60;90.80
3628;DHT22;1830;49.000;12.074;2023-06-19T08:56:01;23.50;90.60
3628;DHT22;1830;49.000;12.074;2023-06-19T08:58:27;23.60;90.70
3628;DHT22;1830;49.000;12.074;2023-06-19T09:00:54;23.70;90.30
3628;DHT22;1830;49.000;12.074;2023-06-19T09:03:24;23.80;90.10
3628;DHT22;1830;49.000;12.074;2023-06-19T09:05:50;23.80;89.60
3628;DHT22;1830;49.000;12.074;2023-06-19T09:08:19;23.80;89.60
3628;DHT22;1830;49.000;12.074;2023-06-19T09:10:55;23.90;90.00
3628;DHT22;1830;49.000;12.074;2023-06-19T09:13:22;23.90;90.20
3628;DHT22;1830;49.000;12.074;2023-06-19T09:15:58;23.80;90.20
3628;DHT22;1830;49.000;12.074;2023-06-19T09:18:25;23.70;90.40
3628;DHT22;1830;49.000;12.074;2023-06-19T09:20:53;23.70;90.70
3628;DHT22;1830;49.000;12.074;2023-06-19T09:23:22;23.70;91.10
3628;DHT22;1830;49.000;12.074;2023-06-19T09:25:50;23.80;91.20
3628;DHT22;1830;49.000;12.074;2023-06-19T09:28:18;23.80;91.10
3628;DHT22;1830;49.000;12.074;2023-06-19T09:30:56;23.80;91.30
3628;DHT22;1830;49.000;12.074;2023-06-19T09:33:25;23.80;91.60
3628;DHT22;1830;49.000;12.074;2023-06-19T09:35:53;23.90;91.40
3628;DHT22;1830;49.000;12.074;2023-06-19T09:38:24;24.00;91.70
3628;DHT22;1830;49.000;12.074;2023-06-19T09:40:52;24.00;91.50
3628;DHT22;1830;49.000;12.074;2023-06-19T09:43:23;24.10;91.50
3628;DHT22;1830;49.000;12.074;2023-06-19T09:45:50;24.20;91.50
3628;DHT22;1830;49.000;12.074;2023-06-19T09:48:27;24.30;92.00
3628;DHT22;1830;49.000;12.074;2023-06-19T09:50:59;24.30;91.90
3628;DHT22;1830;49.000;12.074;2023-06-19T09:53:28;24.30;91.50
3628;DHT22;1830;49.000;12.074;2023-06-19T09:55:55;24.40;91.80
3628;DHT22;1830;49.000;12.074;2023-06-19T09:58:22;24.40;91.50
3628;DHT22;1830;49.000;12.074;2023-06-19T10:00:50;24.40;91.60
3628;DHT22;1830;49.000;12.074;2023-06-19T10:03:18;24.40;92.00
3628;DHT22;1830;49.000;12.074;2023-06-19T10:05:46;24.30;91.60
3628;DHT22;1830;49.000;12.074;2023-06-19T10:08:13;24.20;91.60
3628;DHT22;1830;49.000;12.074;2023-06-19T10:10:47;24.10;91.50
3628;DHT22;1830;49.000;12.074;2023-06-19T10:13:16;24.10;92.00
3628;DHT22;1830;49.000;12.074;2023-06-19T10:15:43;24.20;92.30
3628;DHT22;1830;49.000;12.074;2023-06-19T10:18:14;24.20;92.00
3628;DHT22;1830;49.000;12.074;2023-06-19T10:20:43;24.30;92.10
3628;DHT22;1830;49.000;12.074;2023-06-19T10:23:12;24.40;92.10
3628;DHT22;1830;49.000;12.074;2023-06-19T10:25:42;24.40;92.40
3628;DHT22;1830;49.000;12.074;2023-06-19T10:28:18;24.60;92.60
3628;DHT22;1830;49.000;12.074;2023-06-19T10:30:45;24.70;92.60
3628;DHT22;1830;49.000;12.074;2023-06-19T10:33:17;24.80;92.00
3628;DHT22;1830;49.000;12.074;2023-06-19T10:35:44;24.90;92.10
3628;DHT22;1830;49.000;12.074;2023-06-19T10:38:14;25.00;92.10
3628;DHT22;1830;49.000;12.074;2023-06-19T10:40:42;25.10;91.60
3628;DHT22;1830;49.000;12.074;2023-06-19T10:43:09;25.30;91.90
3628;DHT22;1830;49.000;12.074;2023-06-19T10:45:37;25.20;91.20
3628;DHT22;1830;49.000;12.074;2023-06-19T10:48:05;25.20;91.00
3628;DHT22;1830;49.000;12.074;2023-06-19T10:50:34;25.30;91.50
3628;DHT22;1830;49.000;12.074;2023-06-19T10:53:04;25.30;91.30
3628;DHT22;1830;49.000;12.074;2023-06-19T10:55:31;25.30;91.60
3628;DHT22;1830;49.000;12.074;2023-06-19T10:57:57;25.20;90.90
3628;DHT22;1830;49.000;12.074;2023-06-19T11:00:26;25.20;91.10
3628;DHT22;1830;49.000;12.074;2023-06-19T11:02:55;25.30;91.30
3628;DHT22;1830;49.000;12.074;2023-06-19T11:05:22;25.30;91.70
3628;DHT22;1830;49.000;12.074;2023-06-19T11:07:53;25.40;91.90
3628;DHT22;1830;49.000;12.074;2023-06-19T11:10:22;25.30;91.50
3628;DHT22;1830;49.000;12.074;2023-06-19T11:12:49;25.20;91.30
3628;DHT22;1830;49.000;12.074;2023-06-19T11:15:16;25.10;91.50
3628;DHT22;1830;49.000;12.074;2023-06-19T11:17:43;25.00;91.60
3628;DHT22;1830;49.000;12.074;2023-06-19T11:20:12;24.90;91.80
3628;DHT22;1830;49.000;12.074;2023-06-19T11:22:41;24.80;91.30
3628;DHT22;1830;49.000;12.074;2023-06-19T11:25:09;24.80;91.40
3628;DHT22;1830;49.000;12.074;2023-06-19T11:27:37;24.60;91.60
3628;DHT22;1830;49.000;12.074;2023-06-19T11:30:06;24.60;92.00
3628;DHT22;1830;49.000;12.074;2023-06-19T11:32:34;24.50;92.10
3628;DHT22;1830;49.000;12.074;2023-06-19T11:35:07;24.40;92.30
3628;DHT22;1830;49.000;12.074;2023-06-19T11:37:36;24.40;92.40
3628;DHT22;1830;49.000;12.074;2023-06-19T11:40:04;24.40;92.80
3628;DHT22;1830;49.000;12.074;2023-06-19T11:42:45;24.40;92.90
3628;DHT22;1830;49.000;12.074;2023-06-19T11:45:12;24.40;92.80
3628;DHT22;1830;49.000;12.074;2023-06-19T11:47:39;24.40;93.00
3628;DHT22;1830;49.000;12.074;2023-06-19T11:50:08;24.40;93.30
3628;DHT22;1830;49.000;12.074;2023-06-19T11:52:36;24.40;93.40
3628;DHT22;1830;49.000;12.074;2023-06-19T11:55:03;24.40;93.10
3628;DHT22;1830;49.000;12.074;2023-06-19T11:57:30;24.40;93.20
3628;DHT22;1830;49.000;12.074;2023-06-19T11:59:58;24.50;93.00
3628;DHT22;1830;49.000;12.074;2023-06-19T12:02:25;24.60;93.10
3628;DHT22;1830;49.000;12.074;2023-06-19T12:04:52;24.60;92.90
3628;DHT22;1830;49.000;12.074;2023-06-19T12:07:19;24.70;93.20
3628;DHT22;1830;49.000;12.074;2023-06-19T12:09:47;24.80;93.30
3628;DHT22;1830;49.000;12.074;2023-06-19T12:12:14;24.90;92.90
3628;DHT22;1830;49.000;12.074;2023-06-19T12:14:41;25.10;92.90
3628;DHT22;1830;49.000;12.074;2023-06-19T12:17:09;25.10;92.30
3628;DHT22;1830;49.000;12.074;2023-06-19T12:19:36;25.10;91.90
3628;DHT22;1830;49.000;12.074;2023-06-19T12:22:04;25.20;92.30
3628;DHT22;1830;49.000;12.074;2023-06-19T12:24:31;25.50;92.10
3628;DHT22;1830;49.000;12.074;2023-06-19T12:26:59;25.70;91.80
3628;DHT22;1830;49.000;12.074;2023-06-19T12:29:26;26.10;91.80
3628;DHT22;1830;49.000;12.074;2023-06-19T12:31:52;26.50;91.10
3628;DHT22;1830;49.000;12.074;2023-06-19T12:34:19;26.70;90.20
3628;DHT22;1830;49.000;12.074;2023-06-19T12:36:46;26.80;89.50
3628;DHT22;1830;49.000;12.074;2023-06-19T12:39:13;26.90;88.60
3628;DHT22;1830;49.000;12.074;2023-06-19T12:41:42;27.20;88.40
3628;DHT22;1830;49.000;12.074;2023-06-19T12:44:10;27.60;87.20
3628;DHT22;1830;49.000;12.074;2023-06-19T12:46:38;27.80;85.40
3628;DHT22;1830;49.000;12.074;2023-06-19T12:49:05;27.80;85.90
3628;DHT22;1830;49.000;12.074;2023-06-19T12:51:33;27.50;85.50
3628;DHT22;1830;49.000;12.074;2023-06-19T12:54:00;27.50;84.80
3628;DHT22;1830;49.000;12.074;2023-06-19T12:56:26;27.70;83.50
3628;DHT22;1830;49.000;12.074;2023-06-19T12:58:53;27.80;81.30
3628;DHT22;1830;49.000;12.074;2023-06-19T13:01:21;28.00;82.00
3628;DHT22;1830;49.000;12.074;2023-06-19T13:03:48;27.90;81.00
3628;DHT22;1830;49.000;12.074;2023-06-19T13:06:15;28.10;81.10
3628;DHT22;1830;49.000;12.074;2023-06-19T13:08:41;28.20;80.00
3628;DHT22;1830;49.000;12.074;2023-06-19T13:11:10;28.30;79.40
3628;DHT22;1830;49.000;12.074;2023-06-19T13:13:37;28.50;79.10
3628;DHT22;1830;49.000;12.074;2023-06-19T13:16:04;28.70;79.50
3628;DHT22;1830;49.000;12.074;2023-06-19T13:18:32;28.80;80.10
3628;DHT22;1830;49.000;12.074;2023-06-19T13:20:58;28.80;79.70
3628;DHT22;1830;49.000;12.074;2023-06-19T13:23:25;28.60;80.10
3628;DHT22;1830;49.000;12.074;2023-06-19T13:25:52;28.50;81.40
3628;DHT22;1830;49.000;12.074;2023-06-19T13:28:19;28.30;80.10
3628;DHT22;1830;49.000;12.074;2023-06-19T13:30:46;28.50;81.60
3628;DHT22;1830;49.000;12.074;2023-06-19T13:33:12;28.90;80.20
3628;DHT22;1830;49.000;12.074;2023-06-19T13:35:41;28.90;79.10
3628;DHT22;1830;49.000;12.074;2023-06-19T13:38:08;28.90;81.20
3628;DHT22;1830;49.000;12.074;2023-06-19T13:40:35;28.80;82.60
3628;DHT22;1830;49.000;12.074;2023-06-19T13:43:02;28.90;82.30
3628;DHT22;1830;49.000;12.074;2023-06-19T13:45:29;29.10;80.40
3628;DHT22;1830;49.000;12.074;2023-06-19T13:47:56;29.40;80.70
3628;DHT22;1830;49.000;12.074;2023-06-19T13:50:23;29.50;79.50
3628;DHT22;1830;49.000;12.074;2023-06-19T13:52:51;29.40;80.80
3628;DHT22;1830;49.000;12.074;2023-06-19T13:55:19;29.00;81.00
3628;DHT22;1830;49.000;12.074;2023-06-19T13:57:46;28.60;81.20
3628;DHT22;1830;49.000;12.074;2023-06-19T14:00:14;28.70;81.50
3628;DHT22;1830;49.000;12.074;2023-06-19T14:02:40;28.70;82.90
3628;DHT22;1830;49.000;12.074;2023-06-19T14:05:08;28.60;80.80
3628;DHT22;1830;49.000;12.074;2023-06-19T14:07:35;29.00;82.90
3628;DHT22;1830;49.000;12.074;2023-06-19T14:10:04;29.20;81.90
3628;DHT22;1830;49.000;12.074;2023-06-19T14:12:31;29.40;80.10
3628;DHT22;1830;49.000;12.074;2023-06-19T14:14:58;29.60;79.80
3628;DHT22;1830;49.000;12.074;2023-06-19T14:17:25;29.70;78.80
3628;DHT22;1830;49.000;12.074;2023-06-19T14:19:52;29.70;78.90
3628;DHT22;1830;49.000;12.074;2023-06-19T14:22:21;29.80;79.30
3628;DHT22;1830;49.000;12.074;2023-06-19T14:24:47;29.90;78.90
3628;DHT22;1830;49.000;12.074;2023-06-19T14:27:16;30.10;78.50
3628;DHT22;1830;49.000;12.074;2023-06-19T14:29:42;30.10;76.70
3628;DHT22;1830;49.000;12.074;2023-06-19T14:32:10;30.10;76.10
3628;DHT22;1830;49.000;12.074;2023-06-19T14:34:37;30.10;76.70
3628;DHT22;1830;49.000;12.074;2023-06-19T14:37:04;29.90;74.90
3628;DHT22;1830;49.000;12.074;2023-06-19T14:39:31;29.90;76.20
3628;DHT22;1830;49.000;12.074;2023-06-19T14:41:58;30.20;75.60
3628;DHT22;1830;49.000;12.074;2023-06-19T14:44:26;30.10;75.30
3628;DHT22;1830;49.000;12.074;2023-06-19T14:46:53;29.90;76.00
3628;DHT22;1830;49.000;12.074;2023-06-19T14:49:21;29.90;76.00
3628;DHT22;1830;49.000;12.074;2023-06-19T14:51:47;30.00;75.90
3628;DHT22;1830;49.000;12.074;2023-06-19T14:54:14;29.90;75.50
3628;DHT22;1830;49.000;12.074;2023-06-19T14:56:43;29.80;75.50
3628;DHT22;1830;49.000;12.074;2023-06-19T14:59:13;29.90;76.00
3628;DHT22;1830;49.000;12.074;2023-06-19T15:01:42;29.80;75.40
3628;DHT22;1830;49.000;12.074;2023-06-19T15:04:09;30.00;76.50
3628;DHT22;1830;49.000;12.074;2023-06-19T15:06:35;29.80;75.20
3628;DHT22;1830;49.000;12.074;2023-06-19T15:09:02;29.90;76.10
3628;DHT22;1830;49.000;12.074;2023-06-19T15:11:29;29.80;75.90
3628;DHT22;1830;49.000;12.074;2023-06-19T15:13:56;29.50;75.80
3628;DHT22;1830;49.000;12.074;2023-06-19T15:16:23;29.40;75.50
3628;DHT22;1830;49.000;12.074;2023-06-19T15:18:53;29.50;77.00
3628;DHT22;1830;49.000;12.074;2023-06-19T15:21:20;29.40;75.70
3628;DHT22;1830;49.000;12.074;2023-06-19T15:23:46;29.30;76.60
3628;DHT22;1830;49.000;12.074;2023-06-19T15:26:14;29.20;75.90
3628;DHT22;1830;49.000;12.074;2023-06-19T15:28:41;29.00;76.60
3628;DHT22;1830;49.000;12.074;2023-06-19T15:31:09;28.90;77.40
3628;DHT22;1830;49.000;12.074;2023-06-19T15:33:36;29.00;77.80
3628;DHT22;1830;49.000;12.074;2023-06-19T15:36:04;29.10;77.80
3628;DHT22;1830;49.000;12.074;2023-06-19T15:38:32;28.90;77.00
3628;DHT22;1830;49.000;12.074;2023-06-19T15:40:59;28.80;77.70
3628;DHT22;1830;49.000;12.074;2023-06-19T15:43:25;28.80;79.00
3628;DHT22;1830;49.000;12.074;2023-06-19T15:45:54;28.90;78.90
3628;DHT22;1830;49.000;12.074;2023-06-19T15:48:21;28.90;79.70